This is the latest recevied weather packets stored in our database for station/object PY2FGD-13. If no packets are shown the sender has not sent any weather packets the latest 10 day(s).
| Time | Temp. | Humidity | Pressure | Rain* | Wind** | Luminosity | Snow |
|---|---|---|---|---|---|---|---|
| 1777793864 | 22.78° C | 76% | 1017.2 hPa | - | - | - | - |
| 1777789665 | 22.78° C | 77% | 1017.4 hPa | - | - | - | - |
| 1777789064 | 22.78° C | 77% | 1017.5 hPa | - | - | - | - |
| 1777786065 | 22.78° C | 77% | 1017.8 hPa | - | - | - | - |
| 1777783064 | 23.33° C | 79% | 1017.8 hPa | - | - | - | - |
| 1777777664 | 23.33° C | 69% | 1018.1 hPa | - | - | - | - |
| 1777766864 | 23.33° C | 69% | 1019.3 hPa | - | - | - | - |
| 1777765064 | 23.33° C | 69% | 1019.2 hPa | - | - | - | - |
| 1777763264 | 23.33° C | 70% | 1019.2 hPa | - | - | - | - |
| 1777762664 | 23.33° C | 70% | 1019.3 hPa | - | - | - | - |
| 1777760263 | 23.33° C | 71% | 1019.3 hPa | - | - | - | - |
| 1777756063 | 23.33° C | 71% | 1018.7 hPa | - | - | - | - |
| 1777753663 | 21.67° C | 73% | 1019.1 hPa | - | - | - | - |
| 1777750663 | 22.22° C | 73% | 1018.9 hPa | - | - | - | - |
| 1777749463 | 22.22° C | 74% | 1018.6 hPa | - | - | - | - |
| 1777744063 | 24.44° C | 64% | 1016.4 hPa | - | - | - | - |
| 1777742863 | 24.44° C | 64% | 1016.3 hPa | - | - | - | - |
| 1777741664 | 24.44° C | 66% | 1016.5 hPa | - | - | - | - |
| 1777738665 | 25° C | 60% | 1016.7 hPa | - | - | - | - |
| 1777735063 | 24.44° C | 65% | 1018 hPa | - | - | - | - |
| 1777731463 | 23.89° C | 72% | 1018.8 hPa | - | - | - | - |
| 1777729063 | 23.89° C | 73% | 1018.9 hPa | - | - | - | - |
| 1777725479 | 23.33° C | 77% | 1018.9 hPa | - | - | - | - |
| 1777723063 | 22.78° C | 84% | 1019 hPa | - | - | - | - |
| 1777720663 | 21.67° C | 90% | 1018.8 hPa | - | - | - | - |
* Rain since midnight (hover to see other rain measurements)
** Current wind speed in m/s (hover to see current wind gust speed)